< < Back
Terminal Aerodrome Forecast


Current Version              Previous Versions:   1  2  3  4  5  6  7  8  9  

Terminal Aerodrome Forecast

777
FTUS44 KBMX 311743 RRA
TAFTCL
TAF
KTCL 311743Z 3118/0118 03003KT P6SM SCT040
     FM311900 36005KT P6SM SCT040 SCT250
     FM010000 VRB02KT P6SM SKC=

Latest METAR

810
SAUS70 KWBC 312100 RRG
MTRTCL
METAR KTCL 312053Z 06003KT 10SM SCT044 30/19 A3005 RMK AO2 SLP172
T03000194 56016


USA.gov is the U.S. government's official web portal to all federal, state and local government web resources and services.